Aviation Digital Data Service (ADDS)

Output produced by METARs form (0254 UTC 21 June 2018)
found at http://www.aviationweather.gov/adds/metars/
 
KSAV 210153Z 33004KT 10SM FEW070 FEW110 BKN170 BKN250 27/24 A2989 RMK AO2 SLP119 T02720239 $
KSVN 210156Z AUTO 36005KT 10SM FEW230 26/24 A2985 RMK AO2 SLPNO T02620238 $
KLHW 210156Z AUTO 21003KT 10SM CLR 25/24 A2987 RMK AO2 SLPNO T02490238 CHINO RWY15 $
KTBR 210235Z AUTO 00000KT 10SM CLR 25/23 A2989 RMK AO2 T02530230
KVDI 210235Z AUTO 00000KT 10SM CLR 28/22 A2989 RMK AO2
KJYL 210235Z AUTO 05003KT 10SM SCT060 24/24 A2990 RMK AO2 T02400235
KDBN 210235Z AUTO 00000KT 10SM CLR 25/22 A2992 RMK AO2
KJES 210235Z AUTO 00000KT 10SM CLR 25/23 A2990 RMK AO2 T02500228
KSSI 210153Z AUTO 24007KT 10SM SCT075 BKN090 27/23 A2989 RMK AO2 SLP124 T02670228
KBQK 210235Z AUTO 23006KT 10SM CLR 26/22 A2991 RMK AO2
KAYS 210235Z AUTO 21004KT 10SM SCT065 26/24 A2991 RMK AO2 T02600243
KNBC 210156Z 22006KT 10SM SCT019 BKN035 28/26 A2986 RMK AO2 SLP112 T02780261
KHXD 210255Z AUTO VRB03KT 10SM CLR 28/25 A2988 RMK AO2